Time;durP1;ratioP1;P1;durP2;ratioP2;P2;SDS_P1;SDS_P2;PMS_P1;PMS_P2;Temp;Humidity;BMP_temperature;BMP_pressure;BME280_temperature;BME280_humidity;BME280_pressure;Samples;Min_cycle;Max_cycle;Signal;HPM_P1;HPM_P2
2023/08/20 00:01:29;;;;;;;10.50;3.93;;;21.10;99.90;;;21.64;100.00;98565.88;5074339;28;20476;-79
2023/08/20 00:04:00;;;;;;;7.97;3.80;;;21.00;99.90;;;21.63;100.00;98564.25;5074805;28;20495;-77
2023/08/20 00:06:34;;;;;;;6.20;4.33;;;21.00;99.90;;;21.58;100.00;98570.31;5073948;28;20973;-78
2023/08/20 00:09:06;;;;;;;28.10;5.10;;;21.00;99.90;;;21.62;100.00;98581.28;5075595;28;20463;-78
2023/08/20 00:11:35;;;;;;;11.13;5.07;;;20.80;99.90;;;21.63;100.00;98574.91;5075661;28;20467;-79
2023/08/20 00:14:04;;;;;;;13.07;5.00;;;20.80;99.90;;;21.59;100.00;98580.72;5076265;28;20452;-78
2023/08/20 00:16:36;;;;;;;11.53;5.77;;;20.80;99.90;;;21.49;100.00;98569.91;5076893;28;20471;-78
2023/08/20 00:19:07;;;;;;;4.13;3.33;;;20.90;99.90;;;21.50;100.00;98571.53;5077811;28;20485;-78
2023/08/20 00:21:40;;;;;;;12.43;3.63;;;20.70;99.90;;;21.42;100.00;98571.94;5078349;28;20966;-78
2023/08/20 00:24:15;;;;;;;20.37;5.47;;;20.80;99.90;;;21.40;100.00;98576.72;5077854;28;20487;-78
2023/08/20 00:26:45;;;;;;;10.97;5.03;;;20.70;99.90;;;21.27;100.00;98571.72;5078379;28;20459;-78
2023/08/20 00:29:14;;;;;;;12.93;5.00;;;20.70;99.90;;;21.24;100.00;98561.56;5077700;28;20958;-78
2023/08/20 00:31:45;;;;;;;6.00;4.20;;;20.70;99.90;;;21.20;100.00;98568.44;5078330;28;20456;-78
2023/08/20 00:34:15;;;;;;;15.63;4.93;;;20.70;99.90;;;21.12;100.00;98566.16;5074604;28;20820;-78
2023/08/20 00:36:44;;;;;;;16.70;4.80;;;20.60;99.90;;;21.17;100.00;98555.63;5078020;28;20473;-78
2023/08/20 00:39:15;;;;;;;11.53;4.27;;;20.40;99.90;;;21.20;100.00;98559.63;5077484;28;20460;-78
2023/08/20 00:41:44;;;;;;;17.50;5.50;;;20.40;99.90;;;21.08;100.00;98559.69;5079110;28;20459;-78
2023/08/20 00:44:14;;;;;;;7.27;3.90;;;20.50;99.90;;;20.99;100.00;98563.78;5079182;28;20482;-78
2023/08/20 00:46:46;;;;;;;8.07;4.10;;;20.50;99.90;;;21.04;100.00;98550.56;5078205;28;20459;-78
2023/08/20 00:49:16;;;;;;;7.37;3.77;;;20.30;99.90;;;21.08;100.00;98555.16;5078278;28;20466;-78
2023/08/20 00:51:46;;;;;;;10.70;3.87;;;20.10;99.90;;;21.07;100.00;98542.91;5077672;28;20870;-78
2023/08/20 00:54:17;;;;;;;9.13;4.27;;;20.20;99.90;;;21.01;100.00;98545.72;5079594;28;20533;-78
2023/08/20 00:56:50;;;;;;;8.80;3.90;;;20.30;99.90;;;20.97;100.00;98548.06;5077836;28;20460;-78
2023/08/20 00:59:20;;;;;;;9.00;4.80;;;20.20;99.90;;;20.89;100.00;98540.50;5077895;28;20530;-77
2023/08/20 01:01:52;;;;;;;13.37;4.37;;;20.20;99.90;;;20.89;100.00;98542.34;5077328;28;20548;-78
2023/08/20 01:04:20;;;;;;;19.30;5.00;;;20.20;99.90;;;20.79;100.00;98542.97;5080330;28;20458;-79
2023/08/20 01:07:04;;;;;;;10.37;6.10;;;20.20;99.90;;;20.76;100.00;98542.63;5075178;28;20491;-78
2023/08/20 01:09:51;;;;;;;9.17;4.67;;;20.20;99.90;;;20.78;100.00;98545.88;5075372;28;20974;-78
2023/08/20 01:12:23;;;;;;;14.10;5.40;;;20.10;99.90;;;20.83;100.00;98549.41;5076310;28;20899;-78
2023/08/20 01:14:54;;;;;;;10.17;3.17;;;20.00;99.90;;;20.79;100.00;98550.16;5076961;28;20464;-78
2023/08/20 01:17:25;;;;;;;6.67;3.80;;;20.00;99.90;;;20.76;100.00;98553.28;5078119;28;20468;-78
2023/08/20 01:19:54;;;;;;;9.60;3.47;;;20.00;99.90;;;20.79;100.00;98553.59;5077045;28;21040;-78
2023/08/20 01:23:14;;;;;;;8.67;3.07;;;19.90;99.90;;;20.79;100.00;98553.59;5076309;28;20459;-77
2023/08/20 01:26:08;;;;;;;6.90;3.53;;;19.80;99.90;;;20.77;100.00;98555.72;5073257;28;20473;-78
2023/08/20 01:28:40;;;;;;;7.67;3.80;;;19.80;99.90;;;20.74;100.00;98561.50;5077137;28;20463;-78
2023/08/20 01:31:12;;;;;;;21.93;4.10;;;19.90;99.90;;;20.65;100.00;98564.78;5077163;28;21065;-78
2023/08/20 01:33:43;;;;;;;12.00;4.10;;;19.90;99.90;;;20.62;100.00;98570.59;5073970;28;21644;-78
2023/08/20 01:36:11;;;;;;;15.23;4.27;;;19.90;99.90;;;20.58;100.00;98568.38;5072309;28;20462;-78
2023/08/20 01:38:41;;;;;;;20.10;6.30;;;19.90;99.90;;;20.61;100.00;98569.78;5074798;28;20453;-77
2023/08/20 01:41:12;;;;;;;11.50;4.30;;;19.80;99.90;;;20.64;100.00;98560.53;5078932;28;20546;-78
2023/08/20 01:43:44;;;;;;;7.03;3.27;;;19.70;99.90;;;20.60;100.00;98568.16;5075747;28;21002;-78
2023/08/20 01:46:14;;;;;;;5.13;3.20;;;19.80;99.90;;;20.46;100.00;98570.31;5076576;28;20518;-78
2023/08/20 01:48:44;;;;;;;6.63;2.90;;;19.80;99.90;;;20.44;100.00;98575.03;5075551;28;20470;-78
2023/08/20 01:51:14;;;;;;;9.13;3.30;;;19.80;99.90;;;20.47;100.00;98574.59;5077057;28;20962;-78
2023/08/20 01:53:44;;;;;;;15.03;3.73;;;19.60;99.90;;;20.47;100.00;98577.25;5077472;28;20488;-78
2023/08/20 01:56:14;;;;;;;5.50;3.60;;;19.60;99.90;;;20.46;100.00;98586.25;5076751;28;21385;-79
2023/08/20 01:58:46;;;;;;;5.57;3.53;;;19.40;99.90;;;20.49;100.00;98585.78;5077103;28;20482;-79
2023/08/20 02:01:16;;;;;;;10.53;3.87;;;19.50;99.90;;;20.38;100.00;98589.28;5079203;28;20458;-78
2023/08/20 02:03:46;;;;;;;9.43;3.73;;;19.60;99.90;;;20.31;100.00;98583.28;5078294;28;20549;-78
2023/08/20 02:06:15;;;;;;;15.43;3.83;;;19.60;99.90;;;20.27;100.00;98589.28;5076935;28;20468;-79
2023/08/20 02:08:47;;;;;;;18.13;3.80;;;19.60;99.90;;;20.23;100.00;98573.03;5078213;28;20464;-78
2023/08/20 02:11:17;;;;;;;4.87;3.30;;;19.60;99.90;;;20.26;100.00;98575.19;5074742;28;20472;-79
2023/08/20 02:13:49;;;;;;;8.27;3.50;;;19.60;99.90;;;20.22;100.00;98576.72;5074007;28;20483;-79
2023/08/20 02:16:20;;;;;;;5.60;3.40;;;19.50;99.90;;;20.14;100.00;98579.72;5075570;28;20477;-79
2023/08/20 02:18:50;;;;;;;8.00;3.70;;;19.50;99.90;;;20.09;100.00;98566.38;5075581;28;20504;-78
2023/08/20 02:21:20;;;;;;;4.40;2.80;;;19.50;99.90;;;20.11;100.00;98569.56;5076882;28;20500;-78
2023/08/20 02:23:50;;;;;;;7.93;3.50;;;19.50;99.90;;;20.17;100.00;98562.50;5075052;28;20463;-79
2023/08/20 02:26:18;;;;;;;12.60;3.20;;;19.30;99.90;;;20.08;100.00;98570.06;5077054;28;20820;-78
2023/08/20 02:28:50;;;;;;;11.20;3.43;;;19.50;99.90;;;19.99;100.00;98574.91;5076402;28;20455;-78
2023/08/20 02:31:18;;;;;;;5.47;3.20;;;19.40;99.90;;;20.03;100.00;98567.28;5075232;28;20518;-78
2023/08/20 02:33:48;;;;;;;7.10;2.90;;;19.30;99.90;;;20.08;100.00;98568.22;5074821;28;20495;-78
2023/08/20 02:36:18;;;;;;;5.83;4.27;;;19.20;99.90;;;20.08;100.00;98565.56;5075556;28;20467;-78
2023/08/20 02:38:49;;;;;;;3.97;2.40;;;19.20;99.90;;;20.05;100.00;98573.19;5075544;28;20460;-78
2023/08/20 02:41:19;;;;;;;5.90;3.00;;;19.30;99.90;;;20.05;100.00;98568.69;5075244;28;20458;-78
2023/08/20 02:43:50;;;;;;;18.37;3.93;;;19.20;99.90;;;20.04;100.00;98571.56;5077181;28;20468;-79
2023/08/20 02:46:23;;;;;;;9.47;2.80;;;19.20;99.90;;;20.00;100.00;98567.75;5075323;28;20815;-78
2023/08/20 02:48:54;;;;;;;6.83;3.53;;;19.20;99.90;;;20.02;100.00;98573.66;5077195;28;20882;-79
2023/08/20 02:51:24;;;;;;;6.00;3.30;;;19.20;99.90;;;20.04;100.00;98571.56;5075982;28;20989;-78
2023/08/20 02:53:55;;;;;;;5.77;3.60;;;19.10;99.90;;;20.01;100.00;98574.69;5075397;28;20491;-78
2023/08/20 02:56:25;;;;;;;14.57;3.40;;;19.20;99.90;;;19.95;100.00;98576.44;5077979;28;20483;-78
2023/08/20 02:58:56;;;;;;;6.90;3.50;;;19.20;99.90;;;20.00;100.00;98570.41;5078569;28;20521;-78
2023/08/20 03:01:27;;;;;;;7.00;2.90;;;19.10;99.90;;;20.02;100.00;98573.66;5076409;28;20485;-78
2023/08/20 03:03:58;;;;;;;7.13;2.63;;;19.00;99.90;;;19.93;100.00;98575.84;5076221;28;20459;-78
2023/08/20 03:06:29;;;;;;;4.67;2.63;;;19.10;99.90;;;19.94;100.00;98576.66;5076777;28;20604;-79
2023/08/20 03:08:58;;;;;;;4.60;3.07;;;19.10;99.90;;;19.93;100.00;98567.88;5074175;28;20510;-78
2023/08/20 03:11:29;;;;;;;12.90;3.13;;;19.00;99.90;;;19.94;100.00;98571.34;5074645;28;20495;-78
2023/08/20 03:14:00;;;;;;;11.33;2.97;;;18.90;99.90;;;19.93;100.00;98564.41;5073446;28;21033;-78
2023/08/20 03:16:29;;;;;;;5.63;2.80;;;19.00;99.90;;;19.90;100.00;98562.22;5074043;28;20464;-78
2023/08/20 03:18:59;;;;;;;3.63;2.70;;;19.00;99.90;;;19.90;100.00;98562.22;5073651;28;20471;-78
2023/08/20 03:21:28;;;;;;;5.43;2.70;;;19.00;99.90;;;19.88;100.00;98559.81;5077312;28;20471;-78
2023/08/20 03:23:59;;;;;;;5.77;3.03;;;19.00;99.90;;;19.90;100.00;98560.38;5077187;28;20829;-78
2023/08/20 03:26:29;;;;;;;9.13;3.00;;;19.00;99.90;;;19.85;100.00;98562.97;5076186;28;20468;-78
2023/08/20 03:28:59;;;;;;;6.83;2.97;;;19.00;99.90;;;19.82;100.00;98566.03;5070924;28;20856;-78
2023/08/20 03:31:29;;;;;;;6.70;3.43;;;19.10;99.90;;;19.79;100.00;98565.72;5074048;28;20467;-78
2023/08/20 03:34:00;;;;;;;4.73;2.67;;;19.10;99.90;;;19.76;100.00;98567.00;5073541;28;21005;-78
2023/08/20 03:36:30;;;;;;;5.63;2.60;;;19.00;99.90;;;19.81;100.00;98575.06;5074370;28;21200;-78
2023/08/20 03:39:00;;;;;;;8.60;2.53;;;19.00;99.90;;;19.81;100.00;98577.72;5072977;28;20452;-78
2023/08/20 03:41:29;;;;;;;6.27;2.83;;;19.00;99.90;;;19.81;100.00;98576.91;5075699;28;20467;-78
2023/08/20 03:44:01;;;;;;;8.93;3.03;;;19.00;99.90;;;19.86;100.00;98587.63;5073578;28;20559;-78
2023/08/20 03:46:30;;;;;;;9.10;2.70;;;18.90;99.90;;;19.85;100.00;98583.38;5073947;28;20470;-78
2023/08/20 03:49:00;;;;;;;8.50;3.13;;;18.90;99.90;;;19.87;100.00;98582.09;5073542;28;20452;-78
2023/08/20 03:51:30;;;;;;;15.57;2.73;;;18.90;99.90;;;19.88;100.00;98582.91;5073144;28;20464;-78
2023/08/20 03:54:01;;;;;;;14.27;3.30;;;18.90;99.90;;;19.88;100.00;98588.22;5073291;28;20542;-78
2023/08/20 03:56:31;;;;;;;4.93;3.00;;;18.90;99.90;;;19.88;100.00;98585.56;5074212;28;20576;-78
2023/08/20 03:59:03;;;;;;;9.50;3.50;;;19.00;99.90;;;19.88;100.00;98589.03;5074311;28;20506;-78
2023/08/20 04:01:32;;;;;;;6.87;2.67;;;18.90;99.90;;;19.87;100.00;98586.59;5074262;28;20833;-81
2023/08/20 04:04:02;;;;;;;6.20;2.87;;;19.00;99.90;;;19.84;100.00;98592.38;5069164;28;20491;-79
2023/08/20 04:06:33;;;;;;;17.73;2.73;;;19.00;99.90;;;19.82;100.00;98591.81;5071240;28;20464;-79
2023/08/20 04:09:05;;;;;;;8.67;3.00;;;18.90;99.90;;;19.86;100.00;98595.59;5073324;28;20460;-79
2023/08/20 04:11:35;;;;;;;8.53;2.90;;;19.00;99.90;;;19.87;100.00;98606.00;5074734;28;20464;-79
2023/08/20 04:14:07;;;;;;;5.70;2.40;;;19.00;99.90;;;19.85;100.00;98607.28;5076063;28;20540;-78
2023/08/20 04:16:37;;;;;;;7.23;2.90;;;19.00;99.90;;;19.86;100.00;98600.91;5074097;28;20464;-79
2023/08/20 04:19:07;;;;;;;6.60;3.33;;;18.90;99.90;;;19.90;100.00;98607.38;5072693;28;20495;-81
2023/08/20 04:21:39;;;;;;;6.60;2.90;;;18.90;99.90;;;19.86;100.00;98596.41;5070957;28;20845;-78
2023/08/20 04:24:09;;;;;;;4.30;2.73;;;18.90;99.90;;;19.87;100.00;98602.53;5070937;28;20464;-81
2023/08/20 04:26:38;;;;;;;6.43;4.00;;;18.90;99.90;;;19.83;100.00;98606.69;5069289;28;21046;-80
2023/08/20 04:29:10;;;;;;;11.37;3.43;;;19.00;99.90;;;19.86;100.00;98603.56;5072043;28;20566;-80
2023/08/20 04:31:41;;;;;;;5.20;2.40;;;18.90;99.90;;;19.86;100.00;98606.22;5068746;28;20511;-79
2023/08/20 04:34:11;;;;;;;7.73;3.10;;;18.90;99.90;;;19.87;100.00;98605.19;5071351;28;20488;-78
2023/08/20 04:36:39;;;;;;;9.23;3.40;;;18.90;99.90;;;19.85;100.00;98608.09;5072164;28;20482;-79
2023/08/20 04:39:10;;;;;;;8.40;2.80;;;18.90;99.90;;;19.83;100.00;98615.44;5070785;28;20951;-78
2023/08/20 04:41:40;;;;;;;10.23;3.00;;;18.90;99.90;;;19.84;100.00;98618.91;5074438;28;20562;-79
2023/08/20 04:44:12;;;;;;;4.70;2.30;;;18.90;99.90;;;19.79;100.00;98622.25;5071180;28;20468;-79
2023/08/20 04:46:43;;;;;;;8.13;2.80;;;19.00;99.90;;;19.77;100.00;98620.88;5069618;28;20460;-78
2023/08/20 04:49:13;;;;;;;10.70;3.67;;;18.90;99.90;;;19.81;100.00;98624.69;5069910;28;20495;-79
2023/08/20 04:51:45;;;;;;;23.27;3.30;;;18.80;99.90;;;19.83;100.00;98619.94;5067210;28;20884;-79
2023/08/20 04:54:16;;;;;;;12.97;3.70;;;18.90;99.90;;;19.78;100.00;98623.31;5072707;28;20989;-79
2023/08/20 04:56:46;;;;;;;6.10;3.17;;;18.90;99.90;;;19.76;100.00;98627.22;5072660;28;20566;-78
2023/08/20 04:59:17;;;;;;;11.43;3.07;;;18.90;99.90;;;19.80;100.00;98623.06;5071573;28;20464;-78
2023/08/20 05:01:47;;;;;;;10.43;3.00;;;18.80;99.90;;;19.80;100.00;98623.06;5069820;28;20841;-78
2023/08/20 05:04:17;;;;;;;11.30;2.80;;;18.90;99.90;;;19.79;100.00;98630.22;5073698;28;20463;-79
2023/08/20 05:06:48;;;;;;;8.63;3.20;;;18.90;99.90;;;19.80;100.00;98629.19;5073430;28;21179;-78
2023/08/20 05:09:19;;;;;;;13.53;2.73;;;18.90;99.90;;;19.83;100.00;98623.41;5074435;28;20823;-78
2023/08/20 05:11:49;;;;;;;8.60;3.20;;;18.80;99.90;;;19.84;100.00;98630.34;5075175;28;20521;-78
2023/08/20 05:14:21;;;;;;;5.40;2.70;;;18.90;99.90;;;19.81;100.00;98630.00;5071290;28;20459;-79
2023/08/20 05:16:51;;;;;;;11.03;2.90;;;18.90;99.90;;;19.83;100.00;98620.75;5070312;28;20459;-79
2023/08/20 05:19:23;;;;;;;10.43;3.00;;;18.80;99.90;;;19.85;100.00;98625.84;5074586;28;20534;-78
2023/08/20 05:21:55;;;;;;;8.97;3.00;;;18.80;99.90;;;19.88;100.00;98630.69;5073292;28;21214;-79
2023/08/20 05:24:27;;;;;;;8.43;2.97;;;18.80;99.90;;;19.90;100.00;98637.38;5076650;28;20888;-79
2023/08/20 05:27:14;;;;;;;6.63;2.63;;;18.90;99.90;;;19.90;100.00;98636.56;5057232;28;20471;-83
2023/08/20 05:29:45;;;;;;;4.77;3.10;;;19.00;99.90;;;19.88;100.00;98636.00;5073629;28;21229;-78
2023/08/20 05:32:17;;;;;;;12.00;2.90;;;18.90;99.90;;;19.92;100.00;98642.47;5072863;28;20567;-78
2023/08/20 05:34:48;;;;;;;3.30;2.77;;;18.90;99.90;;;19.94;100.00;98641.19;5073636;28;20776;-79
2023/08/20 05:37:18;;;;;;;9.23;2.80;;;18.90;99.90;;;19.95;100.00;98642.00;5073836;28;20533;-78
2023/08/20 05:39:58;;;;;;;12.03;3.37;;;18.90;99.90;;;19.98;100.00;98636.22;5076203;28;20467;-79
2023/08/20 05:42:28;;;;;;;18.23;2.60;;;19.00;99.90;;;20.00;100.00;98623.50;5075186;28;20476;-78
2023/08/20 05:44:59;;;;;;;8.13;2.20;;;19.00;99.90;;;20.03;100.00;98638.97;5075135;28;20455;-78
2023/08/20 05:47:28;;;;;;;4.40;2.17;;;19.00;99.90;;;20.03;100.00;98634.47;5072365;28;20467;-79
2023/08/20 05:49:59;;;;;;;5.00;3.03;;;19.10;99.90;;;20.02;100.00;98642.69;5073578;28;20466;-78
2023/08/20 05:52:29;;;;;;;22.63;3.13;;;19.20;99.90;;;20.06;100.00;98641.19;5074707;28;20957;-78
2023/08/20 05:55:00;;;;;;;4.73;3.13;;;19.10;99.90;;;20.06;100.00;98643.84;5075800;28;20488;-78
2023/08/20 05:57:30;;;;;;;7.00;2.57;;;19.20;99.90;;;20.05;100.00;98637.72;5073427;28;20487;-78
2023/08/20 06:00:00;;;;;;;13.40;3.80;;;19.30;99.90;;;20.13;100.00;98639.22;5074475;28;20464;-78
2023/08/20 06:02:31;;;;;;;11.97;3.47;;;19.20;99.90;;;20.16;100.00;98637.94;5072687;28;20468;-79
2023/08/20 06:05:01;;;;;;;5.53;2.60;;;19.20;99.90;;;20.18;100.00;98636.66;5074211;28;20468;-78
2023/08/20 06:07:31;;;;;;;5.23;2.80;;;19.20;99.90;;;20.24;100.00;98632.25;5073316;28;20467;-78
2023/08/20 06:10:02;;;;;;;5.43;2.30;;;19.30;99.90;;;20.30;100.00;98632.16;5073035;28;20460;-78
2023/08/20 06:12:34;;;;;;;4.20;2.30;;;19.30;99.90;;;20.33;100.00;98638.84;5071449;28;20962;-79
2023/08/20 06:15:08;;;;;;;4.83;2.97;;;19.40;99.90;;;20.35;100.00;98634.91;5071220;28;20494;-79
2023/08/20 06:17:38;;;;;;;4.17;2.40;;;19.40;99.90;;;20.41;100.00;98638.50;5071798;28;20614;-78
2023/08/20 06:20:11;;;;;;;7.73;2.37;;;19.50;99.90;;;20.47;100.00;98640.22;5073293;28;20460;-79
2023/08/20 06:22:41;;;;;;;4.63;2.83;;;19.50;99.90;;;20.50;100.00;98635.22;5074096;28;20555;-79
2023/08/20 06:25:12;;;;;;;8.03;2.40;;;19.50;99.90;;;20.53;100.00;98645.38;5072226;28;20468;-79
2023/08/20 06:27:44;;;;;;;3.63;2.30;;;19.60;99.90;;;20.53;100.00;98650.69;5072479;28;20474;-78
2023/08/20 06:30:17;;;;;;;5.97;2.63;;;19.70;99.90;;;20.59;100.00;98647.09;5073221;28;21014;-79
2023/08/20 06:32:48;;;;;;;12.83;2.97;;;19.70;99.90;;;20.64;100.00;98648.22;5071544;28;20460;-79
2023/08/20 06:35:19;;;;;;;3.83;2.40;;;19.70;99.90;;;20.69;100.00;98654.44;5073214;28;20487;-78
2023/08/20 06:37:49;;;;;;;5.93;2.10;;;19.70;99.90;;;20.74;100.00;98646.56;5074551;28;21647;-79
2023/08/20 06:40:20;;;;;;;12.50;2.57;;;19.80;99.90;;;20.79;100.00;98643.22;5068739;28;20532;-79
2023/08/20 06:42:50;;;;;;;5.63;2.07;;;19.90;99.90;;;20.83;100.00;98649.66;5071640;28;20456;-78
2023/08/20 06:45:22;;;;;;;3.77;2.20;;;19.90;99.90;;;20.88;100.00;98660.38;5076519;28;20460;-78
2023/08/20 06:47:52;;;;;;;4.83;2.00;;;19.90;99.90;;;20.92;100.00;98665.00;5071200;28;20468;-78
2023/08/20 06:50:22;;;;;;;8.73;2.30;;;20.00;99.90;;;20.98;100.00;98663.22;5070328;28;20486;-79
2023/08/20 06:52:52;;;;;;;7.90;2.23;;;20.00;99.90;;;21.01;100.00;98657.44;5071368;28;21124;-79
2023/08/20 06:55:23;;;;;;;64.83;36.00;;;20.10;99.90;;;21.04;100.00;98664.94;5069905;28;20487;-79
2023/08/20 06:57:52;;;;;;;14.93;3.27;;;20.10;99.90;;;21.08;100.00;98672.19;5072182;28;20484;-79
2023/08/20 07:00:24;;;;;;;9.40;3.20;;;20.20;99.90;;;21.12;100.00;98664.59;5073834;28;20861;-78
2023/08/20 07:02:55;;;;;;;5.23;2.63;;;20.20;99.90;;;21.13;100.00;98658.22;5073036;28;20482;-78
2023/08/20 07:05:25;;;;;;;6.00;2.40;;;20.20;99.90;;;21.16;100.00;98663.06;5073006;28;20468;-81
2023/08/20 07:07:55;;;;;;;13.10;3.80;;;20.20;99.90;;;21.19;100.00;98659.91;5072014;28;20452;-79
2023/08/20 07:10:27;;;;;;;13.20;2.70;;;20.30;99.90;;;21.23;100.00;98661.06;5071661;28;20467;-79
2023/08/20 07:12:56;;;;;;;5.23;2.67;;;20.30;99.90;;;21.28;100.00;98653.16;5073755;28;20464;-81
2023/08/20 07:15:28;;;;;;;116.67;62.57;;;20.40;99.90;;;21.32;100.00;98658.78;5071672;28;20559;-79
2023/08/20 07:17:59;;;;;;;5.03;3.90;;;20.40;99.90;;;21.34;100.00;98660.19;5071148;28;22063;-78
2023/08/20 07:20:28;;;;;;;8.07;3.30;;;20.40;99.90;;;21.39;100.00;98659.44;5071846;28;20460;-78
2023/08/20 07:22:58;;;;;;;5.93;2.93;;;20.50;99.90;;;21.42;100.00;98649.13;5072672;28;20591;-79
2023/08/20 07:25:28;;;;;;;9.27;2.97;;;20.50;99.90;;;21.46;100.00;98650.25;5073469;28;20506;-78
2023/08/20 07:27:59;;;;;;;10.17;3.03;;;20.50;99.90;;;21.48;100.00;98658.81;5072890;28;20452;-79
2023/08/20 07:30:31;;;;;;;3.40;2.83;;;20.60;99.90;;;21.52;100.00;98657.28;5073391;28;20460;-79
2023/08/20 07:33:01;;;;;;;4.43;2.43;;;20.60;99.90;;;21.56;100.00;98655.75;5072793;28;20456;-79
2023/08/20 07:35:35;;;;;;;3.10;2.60;;;20.70;99.90;;;21.59;100.00;98655.25;5072046;28;20538;-79
2023/08/20 07:38:06;;;;;;;8.83;3.13;;;20.80;99.90;;;21.64;100.00;98651.06;5070669;28;20559;-78
2023/08/20 07:40:37;;;;;;;13.77;2.93;;;20.80;99.90;;;21.67;100.00;98648.72;5073391;28;20474;-79
2023/08/20 07:43:08;;;;;;;5.17;2.10;;;20.80;99.90;;;21.73;100.00;98652.28;5072115;28;20949;-79
2023/08/20 07:45:39;;;;;;;4.43;2.63;;;20.80;99.90;;;21.78;100.00;98652.34;5071680;28;21035;-79
2023/08/20 07:48:09;;;;;;;11.37;3.73;;;20.90;99.90;;;21.82;100.00;98656.13;5072421;28;20455;-79
2023/08/20 07:50:39;;;;;;;3.43;2.83;;;20.90;99.90;;;21.86;100.00;98655.41;5073699;28;20888;-79
2023/08/20 07:53:08;;;;;;;12.00;3.73;;;21.00;99.90;;;21.93;100.00;98649.94;5072172;28;20482;-78
2023/08/20 07:55:38;;;;;;;4.13;3.00;;;21.00;99.90;;;21.98;100.00;98655.31;5073455;28;20555;-79
2023/08/20 07:58:08;;;;;;;6.40;3.37;;;21.10;99.90;;;22.02;100.00;98649.28;5073343;28;20495;-78
2023/08/20 08:00:39;;;;;;;9.67;3.77;;;21.20;99.90;;;22.07;100.00;98651.97;5073569;28;20454;-78
2023/08/20 08:03:09;;;;;;;5.10;3.33;;;21.20;99.90;;;22.14;100.00;98656.34;5073048;28;20469;-79
2023/08/20 08:05:39;;;;;;;5.13;3.33;;;21.30;99.90;;;22.19;100.00;98653.75;5072017;28;20487;-78
2023/08/20 08:08:09;;;;;;;9.30;3.60;;;21.40;99.90;;;22.28;100.00;98662.94;5072039;28;20467;-78
2023/08/20 08:10:39;;;;;;;6.80;3.70;;;21.50;99.90;;;22.32;100.00;98662.19;5072489;28;20495;-79
2023/08/20 08:13:08;;;;;;;7.57;4.03;;;21.50;99.90;;;22.38;100.00;98663.88;5071509;28;21040;-78
2023/08/20 08:15:41;;;;;;;6.43;4.00;;;21.60;99.90;;;22.44;100.00;98652.22;5071981;28;20472;-79
2023/08/20 08:18:10;;;;;;;5.67;4.23;;;21.70;99.90;;;22.49;100.00;98662.16;5072072;28;20829;-79
2023/08/20 08:20:40;;;;;;;6.87;4.40;;;21.70;99.90;;;22.55;100.00;98663.81;5072044;28;20505;-79
2023/08/20 08:23:10;;;;;;;9.93;4.00;;;21.80;99.90;;;22.61;100.00;98662.81;5073044;28;20463;-79
2023/08/20 08:25:41;;;;;;;8.40;4.70;;;21.80;99.90;;;22.66;100.00;98664.72;5070914;28;20477;-79
2023/08/20 08:28:12;;;;;;;4.07;3.60;;;21.80;99.90;;;22.71;100.00;98668.28;5073731;28;20516;-78
2023/08/20 08:30:43;;;;;;;6.50;4.00;;;21.90;99.90;;;22.76;100.00;98668.34;5070105;28;20499;-78
2023/08/20 08:33:13;;;;;;;4.90;3.60;;;22.00;99.90;;;22.80;100.00;98660.66;5067554;28;20463;-78
2023/08/20 08:35:43;;;;;;;10.53;3.53;;;22.10;99.90;;;22.85;100.00;98666.03;5071638;28;21018;-78
2023/08/20 08:38:14;;;;;;;4.63;3.60;;;22.10;99.90;;;22.90;100.00;98666.09;5074779;28;20513;-78
2023/08/20 08:40:45;;;;;;;8.20;4.10;;;22.10;99.90;;;22.94;100.00;98667.22;5076277;28;20479;-79
2023/08/20 08:43:16;;;;;;;5.50;3.63;;;22.10;99.90;;;22.99;100.00;98669.91;5074606;28;20514;-79
2023/08/20 08:45:49;;;;;;;8.27;3.70;;;22.20;99.90;;;23.03;100.00;98671.84;5075885;28;20459;-79
2023/08/20 08:48:20;;;;;;;4.63;3.83;;;22.30;99.90;;;23.07;100.00;98674.81;5077493;28;20471;-79
2023/08/20 08:50:52;;;;;;;7.63;3.50;;;22.40;99.90;;;23.12;100.00;98674.84;5075424;28;20470;-79
2023/08/20 08:53:26;;;;;;;156.90;94.83;;;22.40;99.90;;;23.16;100.00;98677.81;5071070;28;21080;-79
2023/08/20 08:55:56;;;;;;;8.17;5.20;;;22.40;99.90;;;23.22;100.00;98674.94;5072688;28;20481;-79
2023/08/20 08:58:26;;;;;;;6.83;3.77;;;22.50;99.90;;;23.27;100.00;98675.00;5075267;28;20503;-79
2023/08/20 09:00:56;;;;;;;6.60;3.93;;;22.50;99.90;;;23.33;100.00;98670.50;5076270;28;20823;-79
2023/08/20 09:03:25;;;;;;;4.57;3.20;;;22.50;99.90;;;23.37;100.00;98669.75;5074100;28;21603;-78
2023/08/20 09:06:00;;;;;;;7.13;3.60;;;22.60;99.90;;;23.42;100.00;98674.38;5074813;28;20518;-79
2023/08/20 09:08:31;;;;;;;5.20;3.37;;;22.70;99.90;;;23.45;100.00;98669.31;5076145;28;20466;-79
2023/08/20 09:11:04;;;;;;;10.90;3.77;;;22.80;99.90;;;23.51;100.00;98670.16;5074686;28;20463;-79
2023/08/20 09:13:37;;;;;;;3.93;3.27;;;22.80;99.90;;;23.57;100.00;98669.13;5075876;28;20470;-79
2023/08/20 09:16:11;;;;;;;5.00;3.33;;;22.90;99.90;;;23.61;100.00;98661.41;5076020;28;20558;-79
2023/08/20 09:18:41;;;;;;;11.87;4.30;;;22.90;99.90;;;23.68;100.00;98664.66;5075084;28;20479;-80
2023/08/20 09:21:12;;;;;;;6.70;4.40;;;22.90;99.90;;;23.72;100.00;98655.91;5075246;28;20562;-79
2023/08/20 09:23:47;;;;;;;4.43;3.50;;;23.00;99.90;;;23.80;100.00;98657.28;5074419;28;20557;-79
2023/08/20 09:26:17;;;;;;;8.47;4.27;;;23.10;99.90;;;23.84;100.00;98661.06;5073157;28;20475;-78
2023/08/20 09:28:49;;;;;;;16.27;8.57;;;23.10;99.90;;;23.88;100.00;98662.16;5072264;28;20463;-79
2023/08/20 09:31:20;;;;;;;17.33;5.97;;;23.20;99.90;;;23.92;100.00;98652.53;5075409;28;20460;-78
2023/08/20 09:33:52;;;;;;;7.03;5.03;;;23.20;99.90;;;23.96;100.00;98654.47;5074285;28;20536;-82
2023/08/20 09:36:32;;;;;;;101.73;55.20;;;23.30;99.90;;;24.02;100.00;98648.06;5076104;28;20463;-79
2023/08/20 09:39:03;;;;;;;37.00;23.57;;;23.30;99.90;;;24.05;100.00;98641.41;5074335;28;20486;-79
2023/08/20 09:41:38;;;;;;;14.70;9.27;;;23.30;99.90;;;24.09;100.00;98642.50;5074531;28;20535;-79
2023/08/20 09:44:10;;;;;;;6.80;5.27;;;23.40;99.90;;;24.12;100.00;98639.31;5075345;28;20470;-79
2023/08/20 09:46:44;;;;;;;6.80;4.20;;;23.40;99.90;;;24.15;100.00;98641.50;5073888;28;20467;-79
2023/08/20 09:49:20;;;;;;;7.70;3.83;;;23.50;99.90;;;24.20;100.00;98652.22;5074474;28;20567;-78
2023/08/20 09:51:56;;;;;;;4.13;3.20;;;23.50;99.90;;;24.26;100.00;98650.38;5073616;28;20841;-79
2023/08/20 09:54:41;;;;;;;4.67;3.40;;;23.60;99.90;;;24.31;100.00;98651.19;5073513;28;20464;-78
2023/08/20 09:57:27;;;;;;;5.30;3.60;;;23.60;99.90;;;24.37;100.00;98644.78;5073254;28;20490;-80
2023/08/20 09:59:59;;;;;;;8.90;3.43;;;23.60;99.90;;;24.44;100.00;98652.56;5073464;28;20527;-79
2023/08/20 10:02:30;;;;;;;6.13;3.10;;;23.70;99.90;;;24.47;100.00;98650.19;5071665;28;20459;-79
2023/08/20 10:05:03;;;;;;;4.17;2.90;;;23.80;99.90;;;24.52;100.00;98652.91;5074204;28;20462;-79
2023/08/20 10:07:33;;;;;;;5.27;3.67;;;23.90;99.90;;;24.58;100.00;98653.69;5073671;28;20479;-81
2023/08/20 10:10:11;;;;;;;38.37;24.97;;;23.90;99.90;;;24.62;100.00;98653.97;5075310;28;20459;-79
2023/08/20 10:12:43;;;;;;;4.97;3.83;;;24.00;99.90;;;24.66;100.00;98653.22;5072007;28;20521;-79
2023/08/20 10:15:16;;;;;;;7.10;3.50;;;24.10;99.90;;;24.72;100.00;98656.69;5075711;28;21147;-79
2023/08/20 10:17:46;;;;;;;4.40;2.67;;;24.10;99.90;;;24.77;100.00;98656.72;5072408;28;20496;-79
2023/08/20 10:20:17;;;;;;;3.60;2.90;;;24.20;99.90;;;24.80;100.00;98664.22;5075728;27;21023;-80
2023/08/20 10:22:50;;;;;;;5.20;3.13;;;24.20;99.90;;;24.83;100.00;98663.72;5075058;28;20516;-78
2023/08/20 10:25:25;;;;;;;3.60;3.20;;;24.20;99.90;;;24.86;100.00;98664.00;5071514;28;20842;-79
2023/08/20 10:27:55;;;;;;;4.10;3.43;;;24.30;99.90;;;24.89;100.00;98657.31;5072579;28;20836;-79